Riverside, North Carolina
Current Conditions -  °F | °C
As of 7:35 AM on Sunday 23 Nov 2014 (Local Time) from KRHP Reporting Station
Overcast Overcast  
Wind Chill: 47°   Ceiling: 2800
Heat Index: 47°   Visibility: 10mi
Dew Point: 47°   Wind: 0mph
Humidity: 99%   Direction: NA
Pressure: 30.05"   Gusts: NA
Location:  35.1737°N, 83.4215°W
Report Text: KRHP 231235Z AUTO 00000KT 10SM OVC028 09/08 A3005 RMK AO2 P0001 T00850084
Loading
Personal Weather Stations






























Interactive Weather Map New forecast layout! Learn more

10-Day Weather Forecast

Advertisements
Track Severe Weather on mobile